KLM3KP EKCH-EHAM
Flight info
| Callsign | KLM3KP |
|---|---|
| Flight time | N/A |
| Altitude | 34000 |
| Route | LANGO M611 ALASA DCT WANZA N872 KUBAT T200 BLUFA |
| Aircraft | A320/M-SDE3FGHIRWY/LB1 |
Departure
| Time | 2026-04-26 16:07 |
|---|---|
| Airport | Copenhagen Kastrup Airport (EKCH) |
Arrival
| Time | N/A |
|---|---|
| Airport | Amsterdam Airport Schiphol (EHAM) |
| Time | Latitude | Longitude | Altitude | Speed | Heading |
|---|---|---|---|---|---|
| 2026-04-26 15:29 | 55.62808 | 12.64228 | 24 ft | 0 kts | 127° |
| 2026-04-26 15:52 | 55.62821 | 12.64198 | 24 ft | 4 kts | 123° |
| 2026-04-26 15:52 | 55.62830 | 12.64171 | 22 ft | 4 kts | 116° |
| 2026-04-26 15:53 | 55.62837 | 12.64114 | 24 ft | 2 kts | 76° |
| 2026-04-26 15:53 | 55.62830 | 12.64075 | 21 ft | 4 kts | 65° |
| 2026-04-26 15:53 | 55.62822 | 12.64040 | 23 ft | 3 kts | 71° |
| 2026-04-26 15:53 | 55.62819 | 12.63995 | 24 ft | 4 kts | 102° |
| 2026-04-26 15:54 | 55.62825 | 12.63954 | 24 ft | 2 kts | 103° |
| 2026-04-26 15:54 | 55.62831 | 12.63911 | 23 ft | 4 kts | 103° |
| 2026-04-26 15:54 | 55.62835 | 12.63882 | 28 ft | 0 kts | 103° |
| 2026-04-26 15:58 | 55.62835 | 12.63883 | 28 ft | 0 kts | 103° |
| 2026-04-26 15:58 | 55.62834 | 12.63890 | 28 ft | 3 kts | 105° |
| 2026-04-26 15:58 | 55.62818 | 12.63933 | 27 ft | 0 kts | 135° |
| 2026-04-26 15:59 | 55.62800 | 12.63948 | 24 ft | 5 kts | 164° |
| 2026-04-26 15:59 | 55.62772 | 12.63944 | 23 ft | 3 kts | 195° |
| 2026-04-26 15:59 | 55.62760 | 12.63936 | 23 ft | 1 kts | 203° |
| 2026-04-26 15:59 | 55.62728 | 12.63908 | 26 ft | 11 kts | 210° |
| 2026-04-26 16:00 | 55.62663 | 12.63869 | 26 ft | 8 kts | 167° |
| 2026-04-26 16:00 | 55.62631 | 12.63914 | 25 ft | 5 kts | 133° |
| 2026-04-26 16:00 | 55.62609 | 12.63967 | 25 ft | 10 kts | 122° |
| 2026-04-26 16:00 | 55.62545 | 12.64146 | 22 ft | 24 kts | 123° |
| 2026-04-26 16:01 | 55.62480 | 12.64313 | 20 ft | 12 kts | 126° |
| 2026-04-26 16:01 | 55.62471 | 12.64334 | 19 ft | 1 kts | 126° |
| 2026-04-26 16:01 | 55.62459 | 12.64361 | 19 ft | 7 kts | 130° |
| 2026-04-26 16:01 | 55.62447 | 12.64383 | 20 ft | 0 kts | 135° |
| 2026-04-26 16:02 | 55.62447 | 12.64384 | 20 ft | 2 kts | 135° |
| 2026-04-26 16:02 | 55.62441 | 12.64393 | 18 ft | 0 kts | 136° |
| 2026-04-26 16:02 | 55.62435 | 12.64403 | 18 ft | 5 kts | 139° |
| 2026-04-26 16:02 | 55.62401 | 12.64433 | 19 ft | 12 kts | 167° |
| 2026-04-26 16:03 | 55.62242 | 12.64401 | 18 ft | 24 kts | 181° |
| 2026-04-26 16:03 | 55.62057 | 12.64450 | 21 ft | 28 kts | 171° |
| 2026-04-26 16:03 | 55.61852 | 12.64517 | 21 ft | 31 kts | 168° |
| 2026-04-26 16:03 | 55.61640 | 12.64528 | 19 ft | 31 kts | 204° |
| 2026-04-26 16:04 | 55.61451 | 12.64311 | 20 ft | 33 kts | 212° |
| 2026-04-26 16:04 | 55.61257 | 12.64088 | 17 ft | 33 kts | 214° |
| 2026-04-26 16:04 | 55.61068 | 12.63865 | 18 ft | 32 kts | 213° |
| 2026-04-26 16:04 | 55.60889 | 12.63663 | 20 ft | 24 kts | 211° |
| 2026-04-26 16:05 | 55.60780 | 12.63626 | 23 ft | 12 kts | 158° |
| 2026-04-26 16:05 | 55.60736 | 12.63695 | 24 ft | 6 kts | 129° |
| 2026-04-26 16:05 | 55.60731 | 12.63706 | 24 ft | 0 kts | 128° |
| 2026-04-26 16:06 | 55.60719 | 12.63734 | 25 ft | 8 kts | 126° |
| 2026-04-26 16:06 | 55.60706 | 12.63908 | 29 ft | 22 kts | 64° |
| 2026-04-26 16:06 | 55.60913 | 12.64238 | 24 ft | 73 kts | 41° |
| 2026-04-26 16:06 | 55.61468 | 12.65096 | 21 ft | 136 kts | 40° |
| 2026-04-26 16:07 | 55.62273 | 12.66382 | 239 ft | 161 kts | 41° |
| 2026-04-26 16:07 | 55.63031 | 12.67746 | 1104 ft | 151 kts | 43° |
| 2026-04-26 16:07 | 55.63712 | 12.69068 | 1811 ft | 136 kts | 45° |
| 2026-04-26 16:07 | 55.64320 | 12.70353 | 2088 ft | 149 kts | 48° |
| 2026-04-26 16:08 | 55.65015 | 12.71874 | 2387 ft | 155 kts | 46° |
| 2026-04-26 16:08 | 55.65498 | 12.72779 | 2770 ft | 151 kts | 34° |
| 2026-04-26 16:08 | 55.66731 | 12.74313 | 3058 ft | 177 kts | 29° |
| 2026-04-26 16:08 | 55.67842 | 12.75638 | 3217 ft | 205 kts | 31° |
| 2026-04-26 16:09 | 55.68942 | 12.77491 | 3494 ft | 234 kts | 52° |
| 2026-04-26 16:09 | 55.69625 | 12.80285 | 3858 ft | 263 kts | 79° |
| 2026-04-26 16:09 | 55.69530 | 12.83594 | 4494 ft | 277 kts | 107° |
| 2026-04-26 16:09 | 55.68646 | 12.86583 | 5286 ft | 282 kts | 132° |
| 2026-04-26 16:10 | 55.67117 | 12.88742 | 6110 ft | 282 kts | 157° |
| 2026-04-26 16:10 | 55.65270 | 12.90002 | 6937 ft | 285 kts | 163° |
| 2026-04-26 16:10 | 55.63360 | 12.90993 | 7674 ft | 288 kts | 175° |
| 2026-04-26 16:10 | 55.61357 | 12.91058 | 8402 ft | 289 kts | 191° |
| 2026-04-26 16:11 | 55.59420 | 12.90134 | 9136 ft | 290 kts | 208° |
| 2026-04-26 16:11 | 55.57695 | 12.88277 | 9852 ft | 290 kts | 225° |
| 2026-04-26 16:11 | 55.56257 | 12.85758 | 10541 ft | 293 kts | 232° |
| 2026-04-26 16:11 | 55.54796 | 12.83058 | 10819 ft | 316 kts | 232° |
| 2026-04-26 16:12 | 55.53323 | 12.80026 | 11027 ft | 333 kts | 240° |
| 2026-04-26 16:12 | 55.52188 | 12.76455 | 11599 ft | 334 kts | 252° |
| 2026-04-26 16:12 | 55.51241 | 12.68629 | 13078 ft | 329 kts | 271° |
| 2026-04-26 16:13 | 55.51095 | 12.64592 | 13854 ft | 330 kts | 271° |
| 2026-04-26 16:13 | 55.50949 | 12.60542 | 14548 ft | 332 kts | 271° |
| 2026-04-26 16:13 | 55.50800 | 12.56470 | 15186 ft | 334 kts | 271° |
| 2026-04-26 16:13 | 55.50648 | 12.52360 | 15802 ft | 337 kts | 271° |
| 2026-04-26 16:14 | 55.50492 | 12.48221 | 16426 ft | 340 kts | 270° |
| 2026-04-26 16:14 | 55.50331 | 12.44054 | 17041 ft | 342 kts | 270° |
| 2026-04-26 16:14 | 55.49992 | 12.35598 | 18258 ft | 348 kts | 270° |
| 2026-04-26 16:15 | 55.49821 | 12.31314 | 18797 ft | 351 kts | 270° |
| 2026-04-26 16:15 | 55.49503 | 12.27010 | 19279 ft | 360 kts | 261° |
| 2026-04-26 16:15 | 55.48671 | 12.22798 | 19805 ft | 369 kts | 249° |
| 2026-04-26 16:16 | 55.45726 | 12.15162 | 20894 ft | 381 kts | 238° |
| 2026-04-26 16:16 | 55.44124 | 12.11423 | 21445 ft | 383 kts | 238° |
| 2026-04-26 16:16 | 55.42518 | 12.07672 | 21971 ft | 385 kts | 238° |
| 2026-04-26 16:16 | 55.40898 | 12.03889 | 22491 ft | 387 kts | 238° |
| 2026-04-26 16:17 | 55.39271 | 12.00094 | 23011 ft | 389 kts | 238° |
| 2026-04-26 16:17 | 55.37635 | 11.96280 | 23506 ft | 392 kts | 238° |
| 2026-04-26 16:17 | 55.35986 | 11.92448 | 23969 ft | 394 kts | 238° |
| 2026-04-26 16:17 | 55.34325 | 11.88590 | 24368 ft | 396 kts | 238° |
| 2026-04-26 16:18 | 55.32657 | 11.84720 | 24742 ft | 398 kts | 238° |
| 2026-04-26 16:18 | 55.29306 | 11.76990 | 25469 ft | 403 kts | 238° |
| 2026-04-26 16:19 | 55.25893 | 11.69146 | 26174 ft | 407 kts | 238° |
| 2026-04-26 16:19 | 55.24208 | 11.65142 | 26519 ft | 408 kts | 240° |
| 2026-04-26 16:19 | 55.21594 | 11.58239 | 27018 ft | 410 kts | 242° |
| 2026-04-26 16:20 | 55.19566 | 11.52551 | 27456 ft | 413 kts | 243° |
| 2026-04-26 16:20 | 55.16506 | 11.43991 | 28090 ft | 417 kts | 242° |
| 2026-04-26 16:20 | 55.14937 | 11.39708 | 28402 ft | 420 kts | 242° |
| 2026-04-26 16:21 | 55.13342 | 11.35416 | 28704 ft | 422 kts | 242° |
| 2026-04-26 16:21 | 55.11729 | 11.31109 | 29002 ft | 424 kts | 241° |
| 2026-04-26 16:21 | 55.10107 | 11.26789 | 29283 ft | 426 kts | 241° |
| 2026-04-26 16:21 | 55.08481 | 11.22466 | 29542 ft | 428 kts | 241° |
| 2026-04-26 16:22 | 55.06866 | 11.18180 | 29813 ft | 429 kts | 241° |
| 2026-04-26 16:22 | 55.05213 | 11.13815 | 30075 ft | 431 kts | 240° |
| 2026-04-26 16:22 | 55.03480 | 11.09450 | 30341 ft | 434 kts | 239° |
| 2026-04-26 16:22 | 55.01726 | 11.05239 | 30521 ft | 436 kts | 238° |
| 2026-04-26 16:23 | 54.99912 | 11.00996 | 30747 ft | 437 kts | 238° |
| 2026-04-26 16:23 | 54.98062 | 10.96699 | 30979 ft | 437 kts | 238° |
| 2026-04-26 16:23 | 54.96265 | 10.92523 | 31244 ft | 437 kts | 238° |
| 2026-04-26 16:23 | 54.94442 | 10.88296 | 31522 ft | 436 kts | 237° |
| 2026-04-26 16:24 | 54.92430 | 10.84318 | 31796 ft | 439 kts | 232° |
| 2026-04-26 16:24 | 54.90463 | 10.80285 | 32072 ft | 435 kts | 237° |
| 2026-04-26 16:24 | 54.88674 | 10.76068 | 32357 ft | 433 kts | 239° |
| 2026-04-26 16:24 | 54.87522 | 10.73160 | 32550 ft | 431 kts | 240° |
| 2026-04-26 16:25 | 54.85848 | 10.68839 | 32838 ft | 431 kts | 240° |
| 2026-04-26 16:25 | 54.84163 | 10.64544 | 33121 ft | 430 kts | 240° |
| 2026-04-26 16:25 | 54.82462 | 10.60343 | 33400 ft | 430 kts | 239° |
| 2026-04-26 16:25 | 54.80698 | 10.56133 | 33682 ft | 430 kts | 238° |
| 2026-04-26 16:26 | 54.78920 | 10.51992 | 33957 ft | 429 kts | 237° |
| 2026-04-26 16:26 | 54.77128 | 10.47870 | 34225 ft | 428 kts | 237° |
| 2026-04-26 16:26 | 54.73557 | 10.39665 | 34299 ft | 424 kts | 237° |
| 2026-04-26 16:27 | 54.70029 | 10.31511 | 34301 ft | 423 kts | 238° |
| 2026-04-26 16:27 | 54.66508 | 10.23358 | 34308 ft | 423 kts | 238° |
| 2026-04-26 16:28 | 54.62980 | 10.15208 | 34309 ft | 423 kts | 238° |
| 2026-04-26 16:28 | 54.59450 | 10.07077 | 34312 ft | 423 kts | 238° |
| 2026-04-26 16:29 | 54.55914 | 9.98973 | 34301 ft | 422 kts | 237° |
| 2026-04-26 16:29 | 54.52382 | 9.90919 | 34311 ft | 422 kts | 237° |
| 2026-04-26 16:30 | 54.48848 | 9.82880 | 34313 ft | 422 kts | 237° |
| 2026-04-26 16:30 | 54.45296 | 9.74833 | 34320 ft | 422 kts | 237° |
| 2026-04-26 16:31 | 54.41749 | 9.66809 | 34326 ft | 422 kts | 237° |
| 2026-04-26 16:31 | 54.38187 | 9.58791 | 34313 ft | 422 kts | 237° |
| 2026-04-26 16:32 | 54.35223 | 9.52140 | 34300 ft | 422 kts | 237° |
| 2026-04-26 16:32 | 54.31036 | 9.42757 | 34307 ft | 423 kts | 237° |
| 2026-04-26 16:33 | 54.27477 | 9.34818 | 34296 ft | 423 kts | 237° |
| 2026-04-26 16:33 | 54.23890 | 9.26844 | 34300 ft | 423 kts | 236° |
| 2026-04-26 16:34 | 54.20292 | 9.18873 | 34300 ft | 423 kts | 236° |
| 2026-04-26 16:34 | 54.16694 | 9.10921 | 34307 ft | 423 kts | 236° |
| 2026-04-26 16:35 | 54.13095 | 9.02982 | 34291 ft | 423 kts | 236° |
| 2026-04-26 16:35 | 54.09483 | 8.95054 | 34286 ft | 423 kts | 236° |
| 2026-04-26 16:36 | 54.05864 | 8.87144 | 34298 ft | 424 kts | 236° |
| 2026-04-26 16:36 | 54.02233 | 8.79226 | 34306 ft | 424 kts | 236° |
| 2026-04-26 16:37 | 53.98627 | 8.71368 | 33801 ft | 418 kts | 236° |
| 2026-04-26 16:37 | 53.96838 | 8.67478 | 33097 ft | 417 kts | 236° |
| 2026-04-26 16:37 | 53.95078 | 8.63663 | 32500 ft | 414 kts | 236° |
| 2026-04-26 16:38 | 53.93300 | 8.59823 | 31899 ft | 411 kts | 236° |
| 2026-04-26 16:38 | 53.91537 | 8.56024 | 31361 ft | 408 kts | 236° |
| 2026-04-26 16:38 | 53.89791 | 8.52260 | 30836 ft | 404 kts | 237° |
| 2026-04-26 16:38 | 53.88057 | 8.48528 | 30312 ft | 401 kts | 237° |
| 2026-04-26 16:39 | 53.86336 | 8.44832 | 29723 ft | 398 kts | 236° |
| 2026-04-26 16:39 | 53.84621 | 8.41158 | 29147 ft | 395 kts | 236° |
| 2026-04-26 16:39 | 53.82926 | 8.37526 | 28597 ft | 392 kts | 236° |
| 2026-04-26 16:39 | 53.81245 | 8.33927 | 28083 ft | 388 kts | 236° |
| 2026-04-26 16:40 | 53.79575 | 8.30355 | 27548 ft | 385 kts | 236° |
| 2026-04-26 16:40 | 53.77920 | 8.26817 | 27038 ft | 382 kts | 236° |
| 2026-04-26 16:40 | 53.76276 | 8.23305 | 26533 ft | 380 kts | 236° |
| 2026-04-26 16:40 | 53.74637 | 8.19805 | 26309 ft | 379 kts | 236° |
| 2026-04-26 16:41 | 53.72995 | 8.16305 | 26323 ft | 380 kts | 236° |
| 2026-04-26 16:41 | 53.71347 | 8.12800 | 26317 ft | 381 kts | 236° |
| 2026-04-26 16:41 | 53.69725 | 8.09363 | 26335 ft | 381 kts | 236° |
| 2026-04-26 16:41 | 53.68068 | 8.05858 | 26338 ft | 381 kts | 236° |
| 2026-04-26 16:42 | 53.66415 | 8.02363 | 26341 ft | 381 kts | 236° |
| 2026-04-26 16:42 | 53.64759 | 7.98871 | 26343 ft | 381 kts | 236° |
| 2026-04-26 16:42 | 53.63102 | 7.95385 | 26346 ft | 381 kts | 236° |
| 2026-04-26 16:42 | 53.61444 | 7.91902 | 26350 ft | 381 kts | 236° |
| 2026-04-26 16:43 | 53.59785 | 7.88417 | 26350 ft | 381 kts | 236° |
| 2026-04-26 16:43 | 53.58128 | 7.84945 | 26352 ft | 381 kts | 235° |
| 2026-04-26 16:43 | 53.56470 | 7.81472 | 26357 ft | 381 kts | 235° |
| 2026-04-26 16:43 | 53.54812 | 7.78004 | 26342 ft | 381 kts | 235° |
| 2026-04-26 16:44 | 53.53149 | 7.74523 | 26345 ft | 380 kts | 235° |
| 2026-04-26 16:44 | 53.51489 | 7.71050 | 26347 ft | 380 kts | 235° |
| 2026-04-26 16:44 | 53.49830 | 7.67587 | 26367 ft | 380 kts | 235° |
| 2026-04-26 16:44 | 53.48170 | 7.64130 | 26354 ft | 380 kts | 235° |
| 2026-04-26 16:45 | 53.46509 | 7.60682 | 26353 ft | 380 kts | 235° |
| 2026-04-26 16:45 | 53.44850 | 7.57243 | 26354 ft | 380 kts | 235° |
| 2026-04-26 16:45 | 53.43182 | 7.53787 | 26331 ft | 380 kts | 235° |
| 2026-04-26 16:45 | 53.41526 | 7.50358 | 26330 ft | 380 kts | 235° |
| 2026-04-26 16:46 | 53.39883 | 7.46950 | 26347 ft | 380 kts | 235° |
| 2026-04-26 16:46 | 53.38226 | 7.43516 | 26348 ft | 380 kts | 235° |
| 2026-04-26 16:46 | 53.36557 | 7.40078 | 26350 ft | 380 kts | 235° |
| 2026-04-26 16:46 | 53.34885 | 7.36646 | 26350 ft | 380 kts | 235° |
| 2026-04-26 16:47 | 53.33215 | 7.33222 | 26354 ft | 380 kts | 235° |
| 2026-04-26 16:47 | 53.31550 | 7.29807 | 26352 ft | 380 kts | 235° |
| 2026-04-26 16:47 | 53.29876 | 7.26374 | 26350 ft | 380 kts | 235° |
| 2026-04-26 16:47 | 53.28206 | 7.22946 | 26350 ft | 380 kts | 235° |
| 2026-04-26 16:48 | 53.26538 | 7.19529 | 26349 ft | 380 kts | 235° |
| 2026-04-26 16:48 | 53.24869 | 7.16118 | 26332 ft | 380 kts | 235° |
| 2026-04-26 16:48 | 53.23194 | 7.12699 | 26327 ft | 380 kts | 235° |
| 2026-04-26 16:48 | 53.21520 | 7.09289 | 26328 ft | 380 kts | 235° |
| 2026-04-26 16:49 | 53.19838 | 7.05873 | 26327 ft | 380 kts | 235° |
| 2026-04-26 16:49 | 53.18159 | 7.02470 | 26325 ft | 380 kts | 235° |
| 2026-04-26 16:49 | 53.16500 | 6.99109 | 26314 ft | 380 kts | 235° |
| 2026-04-26 16:49 | 53.14807 | 6.95677 | 26066 ft | 387 kts | 235° |
| 2026-04-26 16:50 | 53.13100 | 6.92208 | 25800 ft | 388 kts | 235° |
| 2026-04-26 16:50 | 53.11384 | 6.88737 | 25555 ft | 387 kts | 234° |
| 2026-04-26 16:50 | 53.09669 | 6.85285 | 25309 ft | 387 kts | 234° |
| 2026-04-26 16:50 | 53.07955 | 6.81848 | 25071 ft | 385 kts | 234° |
| 2026-04-26 16:51 | 53.06247 | 6.78424 | 24832 ft | 384 kts | 234° |
| 2026-04-26 16:51 | 53.04545 | 6.75010 | 24581 ft | 383 kts | 234° |
| 2026-04-26 16:51 | 53.02841 | 6.71597 | 24346 ft | 382 kts | 234° |
| 2026-04-26 16:51 | 53.01146 | 6.68202 | 24114 ft | 381 kts | 234° |
| 2026-04-26 16:52 | 52.99457 | 6.64819 | 23876 ft | 380 kts | 234° |
| 2026-04-26 16:52 | 52.98340 | 6.62580 | 23696 ft | 379 kts | 234° |
| 2026-04-26 16:52 | 52.96094 | 6.58080 | 23305 ft | 377 kts | 234° |
| 2026-04-26 16:52 | 52.94443 | 6.54781 | 23064 ft | 373 kts | 234° |
| 2026-04-26 16:53 | 52.92793 | 6.51503 | 22667 ft | 368 kts | 234° |
| 2026-04-26 16:53 | 52.91160 | 6.48267 | 22232 ft | 364 kts | 234° |